Carrollton, Arkansas
Current Conditions -  °F | °C
As of 2:53 AM on Monday 24 Nov 2014 (Local Time) from KHRO Reporting Station
Few Clouds Few Clouds  
Wind Chill: 34°   Ceiling: Unl
Heat Index: 39°   Visibility: 10mi
Dew Point: 35°   Wind: 7mph
Humidity: 86%   Direction: 290°WNW
Pressure: 29.61"   Gusts: NA
Location:  36.2987°N, 93.2709°W
Report Text: KHRO 240853Z AUTO 29006KT 10SM FEW033 FEW090 04/02 A2961 RMK AO2 RAE0754 PRESRR SLP024 P0000 60002 T00390017 51046
Loading
Personal Weather Stations






























Interactive Weather Map New forecast layout! Learn more

10-Day Weather Forecast

Advertisements
Track Severe Weather on mobile